カンクン の空港の天気 - METARとTAF

カンクン国際空港 ( MMUN / CUN ) - メキシコ キンタナ・ロー州カンクン
飛行場実況気象(Metar)
観測時間12/09 22:47 CST (12/10 04:47 UTC)
風向・風速北北西 2m/s
視程9650m
天気現象
全天の8割程度の雲 雲底高度 460m
全天の8割程度の雲 雲底高度 2130m
気温23℃
湿度94%
気圧1019hPa
METARMMUN 100447Z 34004KT 6SM BKN015 BKN070 23/22 A3008 RMK 8/770 -RA E45
過去の天気等 Google飛行場航空写真 Wunderground天気予報

過去48時間のMETAR

飛行場予報(TAF)
発表時間: 12/09 23:28 CST (12/10 05:28 UTC)
予報対象時間: 10日0時 CST ~ 11日6時 CST
風向・風速北北西 3m/s
視程10km以上
全天の4割程度の雲 雲底高度 460m
全天の8割程度の雲 雲底高度 2440m
10日0時 CST ~ 10日4時 CST に一時的に
視程6440m
天気現象雷雨
全天の8割程度の積乱雲 雲底高度 460m
10日12時 CST から
風向・風速北西 6m/s
視程10km以上
全天の8割程度の雲 雲底高度 460m
全天の8割程度の雲 雲底高度 7620m
11日0時 CST から
風向・風速北北東 4m/s
視程10km以上
全天の4割程度の雲 雲底高度 460m
全天の4割程度の雲 雲底高度 7620m
TAF MMUN 100528Z 1006/1112 34006KT P6SM SCT015 BKN080 TX30/1019Z TN22/1012Z
TEMPO 1006/1010 4SM TSRA BKN015CB
FM101800 32012KT P6SM BKN015 BKN250
FM110600 02007KT P6SM SCT015 SCT250